Airport View

Enter AWOS ICAO identifier for current METAR.

ex. KFNL

KBTP 251556Z AUTO 07013KT 10SM OVC110 08/01 A3016 RMK AO2 SLP226 T00780011 PNO $

25 Oct 2020 16:30

Frequency: 121.450

Phone: 724-586-6434

Other Area AWOS: KPJC - 42PN - KBVI - KPIT

TAF KBVI 251130Z 2512/2612 06007KT P6SM BKN100 FM251800 08008KT P6SM BKN040 FM252100 08008KT P6SM VCSH BKN025 FM260000 09005KT P6SM VCSH OVC015